UMMSEVRA

Guest
Details From UMMS - Minsk Velikiydvor
To EVRA - Riga Intl
Flight Number -
Tags Decoded
Created
Modified
Stats Distance 229 nm / 423 km
Max Altitude 0 ft / 0 m
Waypoints 2
Social Downloads 2
Likes 0
Share VATSIM

Download

Looking for another format? Having issues loading an existing format? Contact us
Advertisement - Login to hide

Notes

Decoded

Route

UMMS EVRA

ID Type Via Altitude Latitude Longitude Leg Dist Tot Dist Heading (true) Name
O UMMS APT - 0 ft / 0 m 53.89487˚ 28.01253˚ - 0 nm - -
O EVRA APT - 0 ft / 0 m 56.93507˚ 23.97308˚ 228 nm 228 nm 325° / 321° -

Altitude Profile

Advertisement - Login to hide

Weather


0- 5 10 15 20 25 30 35+ Temperature / ° C

Clouds and Precipitation
Forecast for 2017-12-16 12:00 UTC. Updated 2 minutes ago

Ground ~20,000 ft ~40,000 ft Winds

UMMS

Details ICAO UMMS (MSQ)
Name Minsk Velikiydvor
Region Belarus and Russia (Kaliningrad Oblast)
Timezone Europe/Minsk (UTC+3.0)
Stats Elevation 669 ft / 204 m (AMSL)
Location 53.882550° 28.030786°
Runways 1
Magnetic Variation 8.010° E

METAR

UMMS 160700Z 11001MPS 2100 BR BKN002 OVC011 01/01 Q1001 R13/620448 TEMPO 1100 RMK QBB080

Decode

TAF

TAF UMMS 160518Z 1606/1706 15005MPS 3000 BR BKN004 TEMPO 1606/1609 0800 FG VV002 TEMPO 1609/1706 1200 RASN OVC003

Decode

Departure Runways

ID Width Length Bearing (true) Bearing (mag) Surface Threshold Offset Overrun Length
13 197 ft / 60 m 11,938 ft / 3,639 m 138.85° 130.84° Concrete 0 ft / 0 m 0 ft / 0 m
31 197 ft / 60 m 11,938 ft / 3,639 m 318.88° 310.87° Concrete 0 ft / 0 m 0 ft / 0 m

EVRA

Details ICAO EVRA (RIX)
Name Riga Intl
Region Latvia
Timezone Europe/Riga (UTC+2.0)
Stats Elevation 34 ft / 10 m (AMSL)
Location 56.923662° 23.971193°
Runways 1
Magnetic Variation 7.657° E

METAR

EVRA 160720Z 18006KT 0800 R18/1100U FZFG VV002 M01/M01 Q0999 R18/190095 NOSIG

Decode

TAF

TAF AMD EVRA 160356Z 1603/1703 17005KT 3000 BR OVC003 TEMPO 1603/1609 0700 FZFG BKN001 BECMG 1609/1610 8000 NSW OVC005 TEMPO 1610/1703 3000 BR BKN002 BECMG 1621/1623 23005KT

Decode

Destination Runways

ID Width Length Bearing (true) Bearing (mag) Surface Threshold Offset Overrun Length
18 148 ft / 45 m 8,358 ft / 2,548 m 185.15° 177.49° Asphalt 0 ft / 0 m 170 ft / 52 m
36 148 ft / 45 m 8,358 ft / 2,548 m 5.14° 357.48° Asphalt 0 ft / 0 m 170 ft / 52 m

Approach Navaids

Runway Type Ident Frequency Range Bearing (true) Bearing (mag) Slope Elevation
18 Localiser IAO 110.30 MHz 18 nm / 33 km 185.14° 177.48° - 34 ft / 10 m (AMSL)
18 Glidescope IAO 110.30 MHz 10 nm / 19 km 185.15° 177.49° 3.00° 34 ft / 10 m (AMSL)
18 DME IAO 110.30 MHz 18 nm / 33 km - - - 0 ft / 0 m (AMSL)
36 Localiser IRP 110.30 MHz 18 nm / 33 km 5.14° 357.49° - 34 ft / 10 m (AMSL)
36 Glidescope IRP 110.30 MHz 10 nm / 19 km 5.14° 357.49° 3.00° 34 ft / 10 m (AMSL)
36 DME IRP 110.30 MHz 18 nm / 33 km - - - 0 ft / 0 m (AMSL)

Popular Alternatives